KRZN

Burnett County Airport

Siren, Wisconsin, USA
METAR KRZN 191815Z AUTO 02007KT 10SM SCT007 BKN046 OVC055 13/12 A3005 RMK AO2 T01310116
Observed Flight Rules
Sep-19 @ 18:15 UTC (33 minutes ago) Visual Flight Rules
Wind Visibility Clouds
20° at 7 knots 10 miles
  • Scattered at 700' AGL
  • Broken at 4,600' AGL
  • Overcast at 5,500' AGL
Temperatures Readings
Current 13°C / 55°F
Dewpoint 12°C / 54°F
Humidity 94%
Altimeter 30.05" Hg
Pressure 1018 hPa
Elevation 301
METAR KRZN 191815Z AUTO 02007KT 10SM SCT007 BKN046 OVC055 13/12 A3005 RMK AO2 T01310116
Observed Flight Rules
Sep-19 @ 18:15 UTC
(33 minutes ago)
VFR
Wind Visibility
20° at 7 knots 10 miles
Clouds
  • Scattered at 700' AGL
  • Broken at 4,600' AGL
  • Overcast at 5,500' AGL
Temperature Dewpoint
13°C / 55°F 12°C / 54°F
Humidity Altimeter Pressure
94% 30.05" Hg 1018 hPa